Time;durP1;ratioP1;P1;durP2;ratioP2;P2;SDS_P1;SDS_P2;PMS_P1;PMS_P2;Temp;Humidity;BMP_temperature;BMP_pressure;BME280_temperature;BME280_humidity;BME280_pressure;Samples;Min_cycle;Max_cycle;Signal;HPM_P1;HPM_P2
2023/12/29 00:02:14;;;;;;;7.97;7.07;;;4.60;99.90;;;;;;5017905;28;20692;-59
2023/12/29 00:04:43;;;;;;;10.87;6.67;;;4.70;99.90;;;;;;5013020;28;20276;-60
2023/12/29 00:07:10;;;;;;;7.67;6.87;;;4.60;99.90;;;;;;5018706;28;20373;-59
2023/12/29 00:09:40;;;;;;;7.33;6.37;;;4.70;99.90;;;;;;5029543;28;20204;-62
2023/12/29 00:12:08;;;;;;;6.13;5.40;;;4.60;99.90;;;;;;5022883;28;20201;-61
2023/12/29 00:14:37;;;;;;;9.43;7.13;;;4.70;99.90;;;;;;5019262;28;20249;-61
2023/12/29 00:17:05;;;;;;;6.10;5.60;;;4.70;99.90;;;;;;5014761;28;20237;-61
2023/12/29 00:19:31;;;;;;;6.13;5.53;;;4.50;99.90;;;;;;5015584;28;20264;-61
2023/12/29 00:22:03;;;;;;;7.00;5.90;;;4.50;99.90;;;;;;5021783;28;20223;-61
2023/12/29 00:24:32;;;;;;;6.27;5.67;;;4.50;99.90;;;;;;5017822;28;20193;-62
2023/12/29 00:27:02;;;;;;;8.10;7.23;;;4.40;99.90;;;;;;5018909;28;20233;-61
2023/12/29 00:29:32;;;;;;;9.67;6.90;;;4.40;99.90;;;;;;5023161;28;20626;-62
2023/12/29 00:32:02;;;;;;;9.60;7.20;;;4.50;99.90;;;;;;5017139;28;20198;-61
2023/12/29 00:34:29;;;;;;;7.67;6.87;;;4.50;99.90;;;;;;5010777;28;20284;-62
2023/12/29 00:36:57;;;;;;;7.30;6.23;;;4.50;99.90;;;;;;5013812;28;20201;-62
2023/12/29 00:39:29;;;;;;;9.27;7.50;;;4.60;99.90;;;;;;5013378;28;20206;-61
2023/12/29 00:41:59;;;;;;;11.30;6.80;;;4.50;99.90;;;;;;5025023;28;20226;-59
2023/12/29 00:44:26;;;;;;;9.80;7.50;;;4.40;99.90;;;;;;5025300;28;20204;-61
2023/12/29 00:46:57;;;;;;;8.37;6.73;;;4.40;99.90;;;;;;5015926;28;20204;-61
2023/12/29 00:49:25;;;;;;;10.13;6.93;;;4.30;99.90;;;;;;5020284;28;20743;-61
2023/12/29 00:51:52;;;;;;;8.07;7.20;;;4.30;99.90;;;;;;5008319;28;20252;-62
2023/12/29 00:54:19;;;;;;;9.27;6.50;;;4.30;99.90;;;;;;5020144;28;20293;-61
2023/12/29 00:56:51;;;;;;;7.43;6.73;;;4.40;99.90;;;;;;5010949;28;20269;-61
2023/12/29 00:59:20;;;;;;;8.60;7.10;;;4.30;99.90;;;;;;5017466;28;20263;-61
2023/12/29 01:01:47;;;;;;;10.83;7.00;;;4.30;99.90;;;;;;5015485;28;20227;-60
2023/12/29 01:04:14;;;;;;;7.47;6.77;;;4.40;99.90;;;;;;5011509;28;20243;-61
2023/12/29 01:06:41;;;;;;;10.67;7.73;;;4.40;99.90;;;;;;5023745;28;20221;-61
2023/12/29 01:09:11;;;;;;;7.47;6.67;;;4.50;99.90;;;;;;5014461;28;21160;-61
2023/12/29 01:11:38;;;;;;;7.23;6.13;;;4.50;99.90;;;;;;5020730;28;20237;-61
2023/12/29 01:14:06;;;;;;;6.37;5.77;;;4.50;99.90;;;;;;5014470;28;20262;-61
2023/12/29 01:16:33;;;;;;;8.40;6.17;;;4.50;99.90;;;;;;5013059;28;20310;-61
2023/12/29 01:19:00;;;;;;;7.40;6.20;;;4.50;99.90;;;;;;5015652;28;20206;-61
2023/12/29 01:21:27;;;;;;;7.67;6.27;;;4.30;99.90;;;;;;5012722;28;20229;-62
2023/12/29 01:23:54;;;;;;;7.03;6.03;;;4.30;99.90;;;;;;5013531;28;20214;-60
2023/12/29 01:26:21;;;;;;;6.70;6.10;;;4.50;99.90;;;;;;5019327;28;20224;-59
2023/12/29 01:28:47;;;;;;;6.53;5.87;;;4.40;99.90;;;;;;5012090;28;20727;-60
2023/12/29 01:31:15;;;;;;;5.90;5.40;;;4.40;99.90;;;;;;5011218;28;20195;-60
2023/12/29 01:33:42;;;;;;;6.47;5.87;;;4.50;99.90;;;;;;5013157;28;20672;-60
2023/12/29 01:36:09;;;;;;;11.13;7.53;;;4.50;99.90;;;;;;5012731;28;20228;-59
2023/12/29 01:38:36;;;;;;;7.70;5.43;;;4.50;99.90;;;;;;5007422;28;20209;-59
2023/12/29 01:41:04;;;;;;;6.20;5.70;;;4.50;99.90;;;;;;5014435;28;20299;-60
2023/12/29 01:43:31;;;;;;;6.77;6.03;;;4.50;99.90;;;;;;5016168;28;20205;-59
2023/12/29 01:45:58;;;;;;;6.27;5.60;;;4.40;99.90;;;;;;5013974;28;20225;-60
2023/12/29 01:48:27;;;;;;;6.07;5.03;;;4.40;99.90;;;;;;5013337;28;20276;-59
2023/12/29 01:50:55;;;;;;;6.33;5.40;;;4.50;99.90;;;;;;5016317;28;20211;-60
2023/12/29 01:53:22;;;;;;;4.67;4.27;;;4.50;99.90;;;;;;5014702;28;20584;-59
2023/12/29 01:55:50;;;;;;;4.03;3.73;;;4.50;99.90;;;;;;5012565;28;20215;-59
2023/12/29 01:58:17;;;;;;;4.50;4.10;;;4.60;99.90;;;;;;5021142;28;20197;-60
2023/12/29 02:00:44;;;;;;;4.93;4.43;;;4.60;99.90;;;;;;5017654;28;20218;-59
2023/12/29 02:03:11;;;;;;;3.77;3.40;;;4.70;99.90;;;;;;5019593;28;20264;-59
2023/12/29 02:05:41;;;;;;;4.10;3.73;;;4.80;99.90;;;;;;5013102;28;20327;-59
2023/12/29 02:08:09;;;;;;;3.80;3.30;;;4.80;99.90;;;;;;5013538;28;20201;-60
2023/12/29 02:10:38;;;;;;;2.80;2.57;;;4.90;99.90;;;;;;5008318;28;20519;-60
2023/12/29 02:13:05;;;;;;;4.33;3.00;;;5.10;99.90;;;;;;5010562;28;20251;-60
2023/12/29 02:15:32;;;;;;;3.23;3.03;;;5.20;99.90;;;;;;5013612;28;20238;-60
2023/12/29 02:18:03;;;;;;;3.00;2.43;;;5.40;99.90;;;;;;5014093;28;20205;-60
2023/12/29 02:20:31;;;;;;;2.73;2.47;;;5.40;99.90;;;;;;5009826;28;20210;-61
2023/12/29 02:23:00;;;;;;;3.40;2.47;;;5.70;99.90;;;;;;5010714;28;20207;-60
2023/12/29 02:25:28;;;;;;;2.03;1.87;;;5.80;99.90;;;;;;5010558;28;20792;-60
2023/12/29 02:28:00;;;;;;;2.27;1.33;;;5.80;99.90;;;;;;5011703;28;20266;-60
2023/12/29 02:30:35;;;;;;;1.47;1.37;;;5.90;99.90;;;;;;5016018;28;20622;-60
2023/12/29 02:33:06;;;;;;;2.03;1.93;;;5.90;99.90;;;;;;5011978;28;20198;-60
2023/12/29 02:35:38;;;;;;;1.73;1.63;;;5.80;99.90;;;;;;5012130;28;20226;-60
2023/12/29 02:38:06;;;;;;;1.50;1.40;;;5.90;99.90;;;;;;5009472;28;20286;-60
2023/12/29 02:40:34;;;;;;;2.00;1.37;;;5.90;99.90;;;;;;5011361;28;20201;-60
2023/12/29 02:43:01;;;;;;;2.30;1.80;;;5.90;99.90;;;;;;5012080;28;20224;-60
2023/12/29 02:45:28;;;;;;;1.30;1.20;;;5.90;99.90;;;;;;5011680;28;20226;-60
2023/12/29 02:47:55;;;;;;;2.20;1.70;;;5.90;99.90;;;;;;5009858;28;20633;-60
2023/12/29 02:50:22;;;;;;;1.30;1.20;;;5.90;99.90;;;;;;5011167;28;20202;-59
2023/12/29 02:52:49;;;;;;;1.50;1.40;;;5.80;99.90;;;;;;5011654;28;20320;-60
2023/12/29 02:55:16;;;;;;;2.90;1.37;;;5.90;99.90;;;;;;5011925;28;20228;-61
2023/12/29 02:57:44;;;;;;;2.63;2.00;;;5.90;99.90;;;;;;5019760;28;20250;-60
2023/12/29 03:00:12;;;;;;;2.23;2.00;;;5.90;99.90;;;;;;5012932;28;20253;-60
2023/12/29 03:02:39;;;;;;;2.10;1.70;;;6.00;99.90;;;;;;5012108;28;20286;-60
2023/12/29 03:05:07;;;;;;;1.63;1.50;;;6.10;99.90;;;;;;5010370;28;20225;-60
2023/12/29 03:07:34;;;;;;;1.60;1.50;;;5.90;99.90;;;;;;5014378;28;20263;-60
2023/12/29 03:10:01;;;;;;;1.90;1.80;;;5.90;99.90;;;;;;5011215;28;20959;-62
2023/12/29 03:12:28;;;;;;;3.27;1.77;;;5.90;99.90;;;;;;5010222;28;20279;-60
2023/12/29 03:14:57;;;;;;;2.17;1.83;;;5.80;99.90;;;;;;5011199;28;20719;-60
2023/12/29 03:17:24;;;;;;;3.63;2.20;;;5.70;99.90;;;;;;5020897;28;20256;-60
2023/12/29 03:19:51;;;;;;;3.00;2.47;;;5.60;99.90;;;;;;5012545;28;20590;-60
2023/12/29 03:22:18;;;;;;;4.17;2.43;;;5.50;99.90;;;;;;5014447;28;20698;-61
2023/12/29 03:24:45;;;;;;;1.97;1.70;;;5.50;99.90;;;;;;5012231;28;20279;-60
2023/12/29 03:27:12;;;;;;;3.30;1.83;;;5.50;99.90;;;;;;5011551;28;20205;-60
2023/12/29 03:29:39;;;;;;;2.13;1.93;;;5.40;99.90;;;;;;5011240;28;20201;-60
2023/12/29 03:32:08;;;;;;;2.83;2.10;;;5.50;99.90;;;;;;5016519;28;20263;-60
2023/12/29 03:34:35;;;;;;;2.30;2.17;;;5.50;99.90;;;;;;5011895;28;20242;-60
2023/12/29 03:37:01;;;;;;;2.17;1.80;;;5.60;99.90;;;;;;5016588;28;20208;-60
2023/12/29 03:39:29;;;;;;;2.30;2.10;;;5.60;99.90;;;;;;5012295;28;20724;-60
2023/12/29 03:41:57;;;;;;;2.23;2.03;;;5.50;99.90;;;;;;5019360;28;20301;-60
2023/12/29 03:44:24;;;;;;;4.37;2.20;;;5.50;99.90;;;;;;5016988;28;20244;-62
2023/12/29 03:46:51;;;;;;;2.07;1.40;;;5.60;99.90;;;;;;5015895;28;20255;-60
2023/12/29 03:49:20;;;;;;;1.67;1.57;;;5.50;99.90;;;;;;5020520;28;20738;-61
2023/12/29 03:51:47;;;;;;;2.00;1.90;;;5.50;99.90;;;;;;5019588;28;20257;-60
2023/12/29 03:54:14;;;;;;;2.93;2.73;;;5.40;99.90;;;;;;5011758;28;20702;-60
2023/12/29 03:56:41;;;;;;;2.53;2.30;;;5.50;99.90;;;;;;5015667;28;20284;-60
2023/12/29 03:59:08;;;;;;;3.23;2.07;;;5.40;99.90;;;;;;5018259;28;20205;-60
2023/12/29 04:01:36;;;;;;;3.07;2.53;;;5.40;99.90;;;;;;5015993;28;20309;-61
2023/12/29 04:04:03;;;;;;;2.90;2.67;;;5.30;99.90;;;;;;5022884;28;20197;-61
2023/12/29 04:06:31;;;;;;;2.93;2.50;;;5.20;99.90;;;;;;5012064;28;20276;-60
2023/12/29 04:08:58;;;;;;;2.20;2.00;;;5.30;99.90;;;;;;5013490;28;20212;-60
2023/12/29 04:11:25;;;;;;;4.00;3.33;;;5.30;99.90;;;;;;5012570;28;20253;-60
2023/12/29 04:13:52;;;;;;;2.37;2.17;;;5.30;99.90;;;;;;5014908;28;20207;-61
2023/12/29 04:16:19;;;;;;;3.10;2.80;;;5.30;99.90;;;;;;5014265;28;20232;-61
2023/12/29 04:18:46;;;;;;;2.20;2.00;;;5.20;99.90;;;;;;5013918;28;20200;-60
2023/12/29 04:21:15;;;;;;;2.50;2.30;;;5.30;99.90;;;;;;5016209;28;20202;-61
2023/12/29 04:23:43;;;;;;;3.27;2.37;;;5.10;99.90;;;;;;5013352;28;20209;-60
2023/12/29 04:26:10;;;;;;;2.57;2.37;;;5.20;99.90;;;;;;5013777;28;20345;-60
2023/12/29 04:28:37;;;;;;;3.27;2.67;;;5.20;99.90;;;;;;5014092;28;20259;-61
2023/12/29 04:31:04;;;;;;;3.63;2.83;;;5.20;99.90;;;;;;5012160;28;20251;-60
2023/12/29 04:33:31;;;;;;;2.20;2.10;;;5.00;99.90;;;;;;5013887;28;20210;-61
2023/12/29 04:35:58;;;;;;;5.17;3.53;;;5.10;99.90;;;;;;5014019;28;20232;-61
2023/12/29 04:38:25;;;;;;;4.47;2.53;;;5.10;99.90;;;;;;5020125;28;20248;-61
2023/12/29 04:40:53;;;;;;;3.47;3.17;;;5.10;99.90;;;;;;5013840;28;20198;-61
2023/12/29 04:43:20;;;;;;;2.63;2.40;;;5.00;99.90;;;;;;5014695;28;20221;-61
2023/12/29 04:45:47;;;;;;;3.00;2.63;;;5.10;99.90;;;;;;5014149;28;20221;-60
2023/12/29 04:48:14;;;;;;;2.70;2.50;;;5.00;99.90;;;;;;5014388;28;20259;-60
2023/12/29 04:50:41;;;;;;;2.73;2.53;;;5.10;99.90;;;;;;5010980;28;20209;-61
2023/12/29 04:53:08;;;;;;;2.63;2.43;;;5.10;99.90;;;;;;5012874;28;20201;-62
2023/12/29 04:55:35;;;;;;;3.27;2.90;;;5.00;99.90;;;;;;5008273;28;20231;-62
2023/12/29 04:58:03;;;;;;;5.03;4.03;;;5.10;99.90;;;;;;5011862;28;20203;-62
2023/12/29 05:00:30;;;;;;;8.03;3.30;;;5.10;99.90;;;;;;5019933;28;20249;-62
2023/12/29 05:02:57;;;;;;;5.33;4.40;;;5.10;99.90;;;;;;5013913;28;20222;-61
2023/12/29 05:05:24;;;;;;;2.83;2.63;;;5.10;99.90;;;;;;5014032;28;20226;-61
2023/12/29 05:07:51;;;;;;;3.00;1.90;;;5.20;99.90;;;;;;5013869;28;20232;-61
2023/12/29 05:10:18;;;;;;;3.10;2.90;;;5.10;99.90;;;;;;5013471;28;20288;-62
2023/12/29 05:12:45;;;;;;;4.83;3.20;;;5.10;99.90;;;;;;5011454;28;20293;-62
2023/12/29 05:15:13;;;;;;;4.20;3.00;;;5.10;99.90;;;;;;5013586;28;20288;-61
2023/12/29 05:17:41;;;;;;;5.23;3.00;;;5.20;99.90;;;;;;5013247;28;20256;-61
2023/12/29 05:20:09;;;;;;;2.47;2.27;;;5.20;99.90;;;;;;5013136;28;20211;-62
2023/12/29 05:22:36;;;;;;;5.57;2.97;;;5.20;99.90;;;;;;5013717;28;20230;-61
2023/12/29 05:25:03;;;;;;;3.37;3.07;;;5.00;99.90;;;;;;5013677;28;20278;-61
2023/12/29 05:27:31;;;;;;;2.73;2.57;;;5.10;99.90;;;;;;5013271;28;20197;-61
2023/12/29 05:29:58;;;;;;;3.73;3.43;;;5.00;99.90;;;;;;5011120;28;20695;-62
2023/12/29 05:32:27;;;;;;;4.00;3.27;;;5.00;99.90;;;;;;5017853;28;20225;-61
2023/12/29 05:34:54;;;;;;;3.40;2.87;;;5.00;99.90;;;;;;5013593;28;20283;-61
2023/12/29 05:37:21;;;;;;;4.00;2.97;;;5.10;99.90;;;;;;5013230;28;20208;-61
2023/12/29 05:39:48;;;;;;;3.13;2.93;;;5.10;99.90;;;;;;5012839;28;20214;-61
2023/12/29 05:42:15;;;;;;;2.87;2.67;;;5.00;99.90;;;;;;5012655;28;20251;-61
2023/12/29 05:44:43;;;;;;;2.70;2.20;;;5.00;99.90;;;;;;5012999;28;20270;-61
2023/12/29 05:47:11;;;;;;;3.10;2.20;;;5.00;99.90;;;;;;5013879;28;20214;-61
2023/12/29 05:49:39;;;;;;;4.53;2.67;;;4.90;99.90;;;;;;5014737;28;20201;-61
2023/12/29 05:52:06;;;;;;;4.47;2.57;;;5.00;99.90;;;;;;5012683;28;20203;-61
2023/12/29 05:54:34;;;;;;;2.53;2.40;;;5.00;99.90;;;;;;5012548;28;20209;-61
2023/12/29 05:57:01;;;;;;;2.27;2.10;;;5.10;99.90;;;;;;5013179;28;20197;-61
2023/12/29 05:59:28;;;;;;;2.10;2.00;;;5.00;99.90;;;;;;5012386;28;20584;-61
2023/12/29 06:01:56;;;;;;;2.63;1.90;;;5.10;99.90;;;;;;5011964;28;20279;-61
2023/12/29 06:04:23;;;;;;;1.77;1.67;;;5.20;99.90;;;;;;5013008;28;20224;-61
2023/12/29 06:06:51;;;;;;;2.53;2.33;;;5.20;99.90;;;;;;5012819;28;20206;-61
2023/12/29 06:09:18;;;;;;;2.53;2.30;;;5.20;99.90;;;;;;5010419;28;20215;-61
2023/12/29 06:11:45;;;;;;;3.23;2.20;;;5.20;99.90;;;;;;5012207;28;20291;-61
2023/12/29 06:14:12;;;;;;;1.90;1.77;;;5.20;99.90;;;;;;5011392;28;20671;-61
2023/12/29 06:16:39;;;;;;;2.00;1.70;;;5.20;99.90;;;;;;5013542;28;20737;-61
2023/12/29 06:19:06;;;;;;;2.40;2.27;;;5.20;99.90;;;;;;5012367;28;20259;-61
2023/12/29 06:21:33;;;;;;;2.43;1.93;;;5.30;99.90;;;;;;5012312;28;20668;-61
2023/12/29 06:24:02;;;;;;;3.53;2.03;;;5.30;99.90;;;;;;5012576;28;20228;-61
2023/12/29 06:26:29;;;;;;;3.47;2.83;;;5.30;99.90;;;;;;5012399;28;20732;-62
2023/12/29 06:28:56;;;;;;;3.57;2.17;;;5.30;99.90;;;;;;5010939;28;20669;-61
2023/12/29 06:31:24;;;;;;;1.97;1.77;;;5.30;99.90;;;;;;5010592;28;20204;-61
2023/12/29 06:33:51;;;;;;;1.70;1.60;;;5.30;99.90;;;;;;5008382;28;20583;-61
2023/12/29 06:36:18;;;;;;;2.20;2.00;;;5.30;99.90;;;;;;5012836;28;20235;-61
2023/12/29 06:38:48;;;;;;;3.30;2.20;;;5.30;99.90;;;;;;5014789;28;20315;-61
2023/12/29 06:41:16;;;;;;;2.30;2.10;;;5.30;99.90;;;;;;5012148;28;20224;-61
2023/12/29 06:43:45;;;;;;;2.20;2.10;;;5.40;99.90;;;;;;5011661;28;20220;-61
2023/12/29 06:46:13;;;;;;;2.57;1.50;;;5.40;99.90;;;;;;5011803;28;20256;-61
2023/12/29 06:48:41;;;;;;;2.43;2.20;;;5.30;99.90;;;;;;5009648;28;20207;-61
2023/12/29 06:51:09;;;;;;;3.23;1.80;;;5.40;99.90;;;;;;5011675;28;20204;-61
2023/12/29 06:53:36;;;;;;;1.93;1.80;;;5.40;99.90;;;;;;5012026;28;20622;-61
2023/12/29 06:56:04;;;;;;;3.13;2.23;;;5.40;99.90;;;;;;5011863;28;20627;-61
2023/12/29 06:58:33;;;;;;;1.90;1.80;;;5.50;99.90;;;;;;5011500;28;20207;-61
2023/12/29 07:01:00;;;;;;;2.57;1.80;;;5.60;99.90;;;;;;5010133;28;20293;-61
2023/12/29 07:03:27;;;;;;;2.83;1.80;;;5.50;99.90;;;;;;5019607;28;20216;-62
2023/12/29 07:05:54;;;;;;;3.60;1.90;;;5.60;99.90;;;;;;5010780;28;20225;-61
2023/12/29 07:08:21;;;;;;;4.47;3.47;;;5.60;99.90;;;;;;5009806;28;20201;-64
2023/12/29 07:10:50;;;;;;;5.47;4.27;;;5.60;99.90;;;;;;5011064;28;20200;-69
2023/12/29 07:13:20;;;;;;;5.10;4.53;;;5.70;99.90;;;;;;5013079;28;20209;-67
2023/12/29 07:15:48;;;;;;;4.43;3.90;;;5.70;99.90;;;;;;5013878;28;20315;-60
2023/12/29 07:18:19;;;;;;;5.73;3.50;;;5.60;99.90;;;;;;5015330;28;20688;-65
2023/12/29 07:20:46;;;;;;;3.83;3.53;;;5.60;99.90;;;;;;5015416;28;20676;-65
2023/12/29 07:23:13;;;;;;;5.27;3.20;;;5.60;99.90;;;;;;5015463;28;20262;-66
2023/12/29 07:25:40;;;;;;;6.60;4.50;;;5.50;99.90;;;;;;5015473;28;20269;-66
2023/12/29 07:28:07;;;;;;;9.60;6.70;;;5.50;99.90;;;;;;5016326;28;20214;-66
2023/12/29 07:30:34;;;;;;;6.87;4.60;;;5.50;99.90;;;;;;5022995;28;20243;-69
2023/12/29 07:33:03;;;;;;;4.33;2.80;;;5.50;99.90;;;;;;5015594;28;20219;-64
2023/12/29 07:35:29;;;;;;;4.20;3.90;;;5.50;99.90;;;;;;5013941;28;20225;-66
2023/12/29 07:37:56;;;;;;;6.17;4.70;;;5.50;99.90;;;;;;5015238;28;20204;-70
2023/12/29 07:40:23;;;;;;;6.30;4.53;;;5.60;99.90;;;;;;5014856;28;20257;-65
2023/12/29 07:42:50;;;;;;;5.83;4.50;;;5.50;99.90;;;;;;5022270;28;20268;-65
2023/12/29 07:45:18;;;;;;;6.73;4.50;;;5.50;99.90;;;;;;5015345;28;20230;-65
2023/12/29 07:47:45;;;;;;;4.63;4.20;;;5.60;99.90;;;;;;5023404;28;20266;-64
2023/12/29 07:50:16;;;;;;;4.23;3.80;;;5.50;99.90;;;;;;5014522;28;20257;-61
2023/12/29 07:52:43;;;;;;;3.63;3.33;;;5.50;99.90;;;;;;5025438;28;20200;-62
2023/12/29 07:55:10;;;;;;;2.90;2.63;;;5.50;99.90;;;;;;5017810;28;20230;-61
2023/12/29 07:57:37;;;;;;;3.23;2.33;;;5.70;99.90;;;;;;5018125;28;20210;-61
2023/12/29 08:00:06;;;;;;;2.73;2.53;;;5.70;99.90;;;;;;5014524;28;20627;-61
2023/12/29 08:02:33;;;;;;;3.30;2.70;;;5.70;99.90;;;;;;5014870;28;20250;-61
2023/12/29 08:05:00;;;;;;;3.03;2.63;;;5.70;99.90;;;;;;5014814;28;20261;-61
2023/12/29 08:07:28;;;;;;;2.50;2.40;;;5.80;99.90;;;;;;5014657;28;20205;-61
2023/12/29 08:09:55;;;;;;;3.03;1.93;;;5.80;99.90;;;;;;5014181;28;20243;-61
2023/12/29 08:12:22;;;;;;;2.70;2.30;;;5.80;99.90;;;;;;5013771;28;20265;-61
2023/12/29 08:14:49;;;;;;;2.93;2.73;;;5.80;99.90;;;;;;5013778;28;20229;-61
2023/12/29 08:17:16;;;;;;;2.60;2.43;;;5.90;99.90;;;;;;5012253;28;20218;-64
2023/12/29 08:19:43;;;;;;;2.67;2.47;;;5.90;99.90;;;;;;5012897;28;20220;-66
2023/12/29 08:22:10;;;;;;;2.63;1.70;;;6.00;99.90;;;;;;5014196;28;20657;-66
2023/12/29 08:24:42;;;;;;;1.67;1.40;;;6.00;99.90;;;;;;5013479;28;20220;-68
2023/12/29 08:27:10;;;;;;;2.57;2.10;;;6.10;99.90;;;;;;5016805;28;20206;-69
2023/12/29 08:29:37;;;;;;;2.30;2.20;;;6.10;99.90;;;;;;5020317;28;20209;-69
2023/12/29 08:32:05;;;;;;;2.10;1.90;;;6.10;99.90;;;;;;5026355;28;20197;-65
2023/12/29 08:34:32;;;;;;;2.57;2.17;;;6.20;99.90;;;;;;5024299;28;20208;-71
2023/12/29 08:36:59;;;;;;;1.50;1.33;;;6.20;99.90;;;;;;5025204;28;20254;-67
2023/12/29 08:39:25;;;;;;;8.33;3.27;;;6.10;99.90;;;;;;5018513;28;20205;-70
2023/12/29 08:41:54;;;;;;;1.60;1.40;;;6.40;99.90;;;;;;5019495;28;20835;-65
2023/12/29 08:44:21;;;;;;;1.50;1.40;;;6.50;99.90;;;;;;5019413;28;20220;-68
2023/12/29 08:46:48;;;;;;;1.47;1.37;;;6.60;99.90;;;;;;5019119;28;20224;-60
2023/12/29 08:49:15;;;;;;;1.70;0.90;;;6.70;99.90;;;;;;5022847;28;20254;-64
2023/12/29 08:51:42;;;;;;;1.23;1.00;;;6.80;99.90;;;;;;5025557;28;20631;-66
2023/12/29 08:54:09;;;;;;;0.90;0.90;;;6.90;99.90;;;;;;5018556;28;20192;-67
2023/12/29 08:56:36;;;;;;;1.30;1.20;;;6.90;99.90;;;;;;5016422;28;20228;-68
2023/12/29 08:59:04;;;;;;;1.83;1.73;;;7.00;99.90;;;;;;5023671;28;20200;-68
2023/12/29 09:01:32;;;;;;;2.30;2.10;;;7.00;99.90;;;;;;5016786;28;20224;-69
2023/12/29 09:04:01;;;;;;;3.10;2.77;;;7.10;99.90;;;;;;5023687;28;20220;-69
2023/12/29 09:06:29;;;;;;;5.03;3.63;;;7.00;99.90;;;;;;5029691;28;20235;-68
2023/12/29 09:08:56;;;;;;;4.70;3.03;;;6.90;99.90;;;;;;5025053;28;20201;-68
2023/12/29 09:11:23;;;;;;;3.30;2.67;;;6.80;99.90;;;;;;5015965;28;20287;-64
2023/12/29 09:13:50;;;;;;;4.50;3.27;;;6.90;99.90;;;;;;5009582;28;20291;-64
2023/12/29 09:16:18;;;;;;;4.50;3.77;;;6.90;99.90;;;;;;5016355;28;20303;-66
2023/12/29 09:18:45;;;;;;;9.45;7.68;;;6.70;99.90;;;;;;5024121;28;20453;-61
2023/12/29 09:21:13;;;;;;;6.33;4.07;;;6.80;99.90;;;;;;5029659;28;20246;-65
2023/12/29 09:23:43;;;;;;;5.47;3.80;;;6.80;99.90;;;;;;5016051;28;20231;-62
2023/12/29 09:26:10;;;;;;;3.50;2.87;;;6.80;99.90;;;;;;5013463;28;20252;-62
2023/12/29 09:28:37;;;;;;;3.40;3.20;;;6.80;99.90;;;;;;5013391;28;20873;-62
2023/12/29 09:31:08;;;;;;;3.93;3.57;;;7.00;99.90;;;;;;5026715;28;20205;-62
2023/12/29 09:33:40;;;;;;;5.30;2.77;;;6.90;99.90;;;;;;5007812;28;20205;-63
2023/12/29 09:36:10;;;;;;;4.80;3.83;;;6.90;99.90;;;;;;5000837;28;20304;-63
2023/12/29 09:38:37;;;;;;;5.23;4.73;;;7.00;99.90;;;;;;5011361;28;20240;-62
2023/12/29 09:41:12;;;;;;;9.57;6.90;;;7.20;99.90;;;;;;5013116;28;20209;-62
2023/12/29 09:43:42;;;;;;;3.77;3.33;;;7.30;99.90;;;;;;5013441;28;20221;-62
2023/12/29 09:46:11;;;;;;;5.23;4.57;;;7.40;99.90;;;;;;5019065;28;20764;-62
2023/12/29 09:48:40;;;;;;;3.73;3.40;;;7.50;99.90;;;;;;5019593;28;20716;-63
2023/12/29 09:51:08;;;;;;;2.77;2.57;;;7.70;99.90;;;;;;5012846;28;20288;-62
2023/12/29 09:53:37;;;;;;;2.73;2.53;;;7.80;99.90;;;;;;5009234;28;20197;-62
2023/12/29 09:56:09;;;;;;;3.17;2.70;;;7.90;99.90;;;;;;5016149;28;20230;-62
2023/12/29 09:58:38;;;;;;;2.93;1.93;;;8.00;99.90;;;;;;5011251;28;20205;-63
2023/12/29 10:01:06;;;;;;;4.80;2.87;;;8.10;99.90;;;;;;5010839;28;20213;-62
2023/12/29 10:03:36;;;;;;;2.70;2.50;;;8.10;99.90;;;;;;5009201;28;20318;-63
2023/12/29 10:06:10;;;;;;;2.40;1.47;;;8.10;99.90;;;;;;5012259;28;20259;-62
2023/12/29 10:08:39;;;;;;;2.47;2.27;;;8.10;99.90;;;;;;5011053;28;20215;-63
2023/12/29 10:11:09;;;;;;;4.20;2.37;;;8.30;99.90;;;;;;5010373;28;20203;-62
2023/12/29 10:13:36;;;;;;;4.00;2.27;;;8.30;99.90;;;;;;5010993;28;20233;-62
2023/12/29 10:16:10;;;;;;;2.50;2.30;;;8.40;99.90;;;;;;5010403;28;20307;-62
2023/12/29 10:18:46;;;;;;;2.63;2.00;;;8.40;99.90;;;;;;5007456;28;20207;-63
2023/12/29 10:21:23;;;;;;;5.70;2.60;;;8.50;99.90;;;;;;5011479;28;20699;-62
2023/12/29 10:23:56;;;;;;;2.63;2.43;;;8.50;99.90;;;;;;5011926;28;20283;-63
2023/12/29 10:26:25;;;;;;;2.97;1.57;;;8.40;99.90;;;;;;5006685;28;20315;-63
2023/12/29 10:28:53;;;;;;;1.77;0.97;;;8.50;99.90;;;;;;5007528;28;20251;-63
2023/12/29 10:31:20;;;;;;;1.13;0.77;;;8.60;99.90;;;;;;5011155;28;20205;-62
2023/12/29 10:33:50;;;;;;;1.50;0.60;;;8.70;99.90;;;;;;5026286;28;20203;-63
2023/12/29 10:36:18;;;;;;;1.53;0.90;;;8.60;99.90;;;;;;5024276;28;20224;-63
2023/12/29 10:38:45;;;;;;;0.93;0.77;;;8.70;99.90;;;;;;5023324;28;20201;-62
2023/12/29 10:41:14;;;;;;;1.83;0.60;;;8.70;99.90;;;;;;5023164;28;20201;-63
2023/12/29 10:43:41;;;;;;;1.10;1.10;;;8.80;99.90;;;;;;5019648;28;20300;-63
2023/12/29 10:46:09;;;;;;;2.20;1.53;;;8.80;99.90;;;;;;5011290;28;20798;-63
2023/12/29 10:48:37;;;;;;;1.43;0.93;;;8.90;99.90;;;;;;5011185;28;20663;-63
2023/12/29 10:51:04;;;;;;;1.07;1.07;;;8.90;99.90;;;;;;5013449;28;20665;-63
2023/12/29 10:53:34;;;;;;;1.43;1.33;;;9.00;99.90;;;;;;5023422;28;20773;-63
2023/12/29 10:56:01;;;;;;;1.47;1.37;;;9.10;99.90;;;;;;5014662;28;20225;-63
2023/12/29 10:58:29;;;;;;;3.37;1.60;;;9.10;99.90;;;;;;5011774;28;20268;-63
2023/12/29 11:00:56;;;;;;;2.80;1.70;;;9.10;99.90;;;;;;5010491;28;20202;-63
2023/12/29 11:03:23;;;;;;;1.53;1.43;;;9.00;99.90;;;;;;5026579;28;20193;-63
2023/12/29 11:05:51;;;;;;;2.27;1.80;;;9.10;99.90;;;;;;5011343;28;20312;-63
2023/12/29 11:08:19;;;;;;;2.90;1.83;;;9.00;99.90;;;;;;5010778;28;20202;-64
2023/12/29 11:10:49;;;;;;;3.83;2.30;;;9.00;99.90;;;;;;5014728;28;20205;-63
2023/12/29 11:13:17;;;;;;;2.03;1.60;;;9.10;99.90;;;;;;5021883;28;20256;-67
2023/12/29 11:15:45;;;;;;;5.17;1.67;;;9.20;99.90;;;;;;5016886;28;20237;-64
2023/12/29 11:18:15;;;;;;;2.63;1.93;;;9.20;99.90;;;;;;5016022;28;20207;-64
2023/12/29 11:20:43;;;;;;;2.20;2.00;;;9.30;99.90;;;;;;5017569;28;20673;-64
2023/12/29 11:23:13;;;;;;;1.37;1.20;;;9.30;99.90;;;;;;5010559;28;20206;-64
2023/12/29 11:25:40;;;;;;;1.67;1.40;;;8.90;99.90;;;;;;5013688;28;20213;-64
2023/12/29 11:28:11;;;;;;;2.10;0.70;;;9.50;99.90;;;;;;5015587;28;20625;-64
2023/12/29 11:30:39;;;;;;;3.10;1.30;;;9.60;99.90;;;;;;5007758;28;20252;-64
2023/12/29 11:33:13;;;;;;;0.87;0.80;;;9.70;99.90;;;;;;5009215;28;20286;-63
2023/12/29 11:35:46;;;;;;;1.07;0.87;;;9.80;99.90;;;;;;5011915;28;20219;-64
2023/12/29 11:38:27;;;;;;;1.10;1.03;;;9.80;99.90;;;;;;5014235;28;20289;-64
2023/12/29 11:41:03;;;;;;;0.90;0.77;;;9.90;99.90;;;;;;5010986;28;20205;-64
2023/12/29 11:43:31;;;;;;;1.27;1.27;;;9.90;99.90;;;;;;5011432;28;20204;-64
2023/12/29 11:45:58;;;;;;;0.80;0.80;;;9.90;99.90;;;;;;5011615;28;20368;-64
2023/12/29 11:48:55;;;;;;;0.93;0.93;;;9.90;99.90;;;;;;5011536;28;20255;-64
2023/12/29 11:51:29;;;;;;;1.60;1.50;;;10.00;99.90;;;;;;5005521;28;20285;-64
2023/12/29 11:53:56;;;;;;;0.70;0.60;;;10.00;99.90;;;;;;5016613;28;20243;-64
2023/12/29 11:56:23;;;;;;;1.20;1.10;;;10.10;99.90;;;;;;5031353;28;20229;-64
2023/12/29 11:58:52;;;;;;;1.07;0.93;;;10.10;99.90;;;;;;5030769;28;20256;-64
2023/12/29 12:01:34;;;;;;;1.33;1.00;;;10.10;99.90;;;;;;5034176;28;20217;-64
2023/12/29 12:04:01;;;;;;;1.17;1.17;;;10.20;99.90;;;;;;5020255;28;20267;-64
2023/12/29 12:06:38;;;;;;;5.93;2.33;;;10.20;99.90;;;;;;5016740;28;20770;-64
2023/12/29 12:09:19;;;;;;;0.90;0.90;;;10.30;99.90;;;;;;5006409;28;20734;-64
2023/12/29 12:11:49;;;;;;;1.63;1.10;;;10.30;99.90;;;;;;5007193;28;20305;-64
2023/12/29 12:14:48;;;;;;;2.30;1.20;;;10.40;99.90;;;;;;5014801;28;20285;-64
2023/12/29 12:17:28;;;;;;;1.97;1.23;;;10.50;99.90;;;;;;5014656;28;20547;-64
2023/12/29 12:19:59;;;;;;;6.40;3.07;;;10.60;99.90;;;;;;5014193;28;20244;-64
2023/12/29 12:22:27;;;;;;;6.10;3.30;;;10.70;99.90;;;;;;5014582;28;20286;-64
2023/12/29 12:24:58;;;;;;;6.57;4.23;;;10.70;99.90;;;;;;5026144;28;20278;-64
2023/12/29 12:27:26;;;;;;;2.90;2.50;;;10.80;99.90;;;;;;5031957;28;20296;-65
2023/12/29 12:29:57;;;;;;;2.73;1.43;;;10.80;99.90;;;;;;5014304;28;20205;-64
2023/12/29 12:32:25;;;;;;;3.23;1.73;;;10.90;99.90;;;;;;5014290;28;20677;-64
2023/12/29 12:34:52;;;;;;;2.00;1.80;;;10.90;99.90;;;;;;5014603;28;20309;-64
2023/12/29 12:37:23;;;;;;;2.17;1.47;;;11.00;99.90;;;;;;5014660;28;20205;-64
2023/12/29 12:39:50;;;;;;;1.97;1.70;;;10.90;99.90;;;;;;5013655;28;20201;-64
2023/12/29 12:42:17;;;;;;;1.67;1.40;;;10.90;99.90;;;;;;5013502;28;20207;-64
2023/12/29 12:44:51;;;;;;;1.57;1.43;;;10.90;99.90;;;;;;5010292;28;20325;-64
2023/12/29 12:47:26;;;;;;;4.40;1.80;;;10.80;99.90;;;;;;4997543;28;20234;-64
2023/12/29 12:49:53;;;;;;;2.60;2.23;;;10.70;99.90;;;;;;4994640;28;20208;-64
2023/12/29 12:52:21;;;;;;;2.33;2.13;;;10.70;99.90;;;;;;4995154;28;20262;-64
2023/12/29 12:54:49;;;;;;;2.93;2.57;;;10.80;99.90;;;;;;4994912;28;20226;-64
2023/12/29 12:57:20;;;;;;;2.60;2.33;;;10.80;99.90;;;;;;5010541;28;20285;-65
2023/12/29 12:59:48;;;;;;;8.23;2.07;;;10.80;99.90;;;;;;5013737;28;20236;-64
2023/12/29 13:02:15;;;;;;;2.13;1.93;;;10.90;99.90;;;;;;5013726;28;20273;-64